Time;durP1;ratioP1;P1;durP2;ratioP2;P2;SDS_P1;SDS_P2;PMS_P1;PMS_P2;Temp;Humidity;BMP_temperature;BMP_pressure;BME280_temperature;BME280_humidity;BME280_pressure;Samples;Min_cycle;Max_cycle;Signal;HPM_P1;HPM_P2
2023/09/30 00:02:21;;;;;;;11.80;6.53;;;;;;;-141.97;51.30;47344.19;4989939;28;20175;-90
2023/09/30 00:04:47;;;;;;;11.13;6.50;;;;;;;-141.97;51.64;47438.34;4975125;28;20180;-90
2023/09/30 00:07:12;;;;;;;10.70;6.07;;;;;;;-141.97;51.98;47503.69;4974553;28;20172;-89
2023/09/30 00:09:38;;;;;;;12.27;6.63;;;;;;;-141.97;52.21;47447.97;4974228;28;20202;-91
2023/09/30 00:12:04;;;;;;;14.27;6.40;;;;;;;-141.97;52.36;47524.84;4974211;28;20599;-88
2023/09/30 00:14:29;;;;;;;10.30;6.50;;;;;;;-141.97;52.40;47432.59;4989248;28;20175;-90
2023/09/30 00:16:55;;;;;;;9.90;6.50;;;;;;;-141.97;52.26;47565.22;4989408;28;20238;-89
2023/09/30 00:19:22;;;;;;;12.80;6.80;;;;;;;-141.97;52.28;47588.28;4974523;28;20553;-89
2023/09/30 00:21:48;;;;;;;9.27;6.50;;;;;;;-141.97;52.14;47265.38;4974065;28;20326;-91
2023/09/30 00:24:13;;;;;;;11.60;6.70;;;;;;;-141.97;51.90;47380.69;4974307;28;20709;-90
2023/09/30 00:26:39;;;;;;;11.67;6.70;;;;;;;-141.97;52.09;47411.44;4989439;28;20195;-89
2023/09/30 00:29:04;;;;;;;10.63;6.00;;;;;;;-141.97;52.36;47497.94;4973722;28;20219;-90
2023/09/30 00:31:31;;;;;;;9.67;6.37;;;;;;;-141.97;52.26;47594.03;4972825;28;20625;-90
2023/09/30 00:33:56;;;;;;;11.53;7.03;;;;;;;-141.97;52.41;47344.19;4988264;28;20184;-90
2023/09/30 00:36:22;;;;;;;15.53;6.70;;;;;;;-141.97;52.36;47373.00;4988494;28;20210;-91
2023/09/30 00:38:47;;;;;;;9.77;6.30;;;;;;;-141.97;52.29;47388.38;4973808;28;20175;-88
2023/09/30 00:41:13;;;;;;;9.67;6.50;;;;;;;-141.97;52.22;47611.34;4974098;28;20174;-90
2023/09/30 00:43:39;;;;;;;13.83;7.17;;;;;;;-141.97;52.00;47588.28;4988279;28;20204;-90
2023/09/30 00:46:15;;;;;;;9.53;6.60;;;;;;;-141.97;51.86;47313.44;4974051;28;20196;-90
2023/09/30 00:48:41;;;;;;;11.57;6.60;;;;;;;-141.97;52.31;47449.88;4973687;28;20168;-91
2023/09/30 00:51:06;;;;;;;13.50;6.80;;;;;;;-141.97;52.43;47553.69;4969677;28;20190;-90
2023/09/30 00:53:32;;;;;;;12.57;6.80;;;;;;;-141.97;52.49;47521.00;4954213;29;20179;-90
2023/09/30 00:55:59;;;;;;;11.57;6.70;;;;;;;-141.97;52.41;47396.06;4954774;29;20259;-89
2023/09/30 00:58:28;;;;;;;12.43;6.93;;;;;;;-141.97;52.48;47471.03;4954525;28;20185;-90
2023/09/30 01:00:55;;;;;;;9.10;6.87;;;;;;;-141.97;52.90;47649.78;4957374;29;20195;-90
2023/09/30 01:03:22;;;;;;;11.40;6.97;;;;;;;-141.97;53.21;47421.06;4972971;28;20173;-89
2023/09/30 01:05:49;;;;;;;15.43;7.27;;;;;;;-141.97;52.83;47624.78;4958334;29;20169;-90
2023/09/30 01:08:16;;;;;;;10.87;7.20;;;;;;;-141.97;52.78;47421.06;4956542;29;20188;-90
2023/09/30 01:10:41;;;;;;;12.87;7.20;;;;;;;-141.97;52.60;47578.66;4958316;28;20177;-89
2023/09/30 01:13:07;;;;;;;9.80;6.60;;;;;;;-141.97;52.22;47553.69;4957979;29;20617;-89
2023/09/30 01:15:32;;;;;;;10.63;6.70;;;;;;;-141.97;52.31;47476.78;4957773;29;20235;-88
2023/09/30 01:17:58;;;;;;;10.97;6.77;;;;;;;-141.97;52.52;47592.13;4957239;29;20279;-89
2023/09/30 01:20:23;;;;;;;12.27;6.60;;;;;;;-141.97;52.46;47430.66;4957603;29;20173;-87
2023/09/30 01:22:49;;;;;;;11.50;7.00;;;;;;;-141.97;52.41;47509.47;4967142;29;20177;-89
2023/09/30 01:25:14;;;;;;;12.50;7.17;;;;;;;-141.97;52.00;47340.34;4973101;28;20626;-90
2023/09/30 01:27:40;;;;;;;14.47;7.17;;;;;;;-141.97;51.89;47497.94;4956410;28;20391;-89
2023/09/30 01:30:10;;;;;;;11.43;7.00;;;;;;;-141.97;52.03;47371.09;4956262;29;20198;-90
2023/09/30 01:32:36;;;;;;;15.43;7.07;;;;;;;-141.97;51.97;47434.50;4958410;29;20173;-91
2023/09/30 01:35:02;;;;;;;11.43;6.83;;;;;;;-141.97;51.70;47469.09;4956630;29;20208;-89
2023/09/30 01:37:30;;;;;;;15.47;6.97;;;;;;;-141.97;51.67;47484.47;4973491;28;20196;-87
2023/09/30 01:39:55;;;;;;;11.37;6.87;;;;;;;-141.97;51.57;47595.97;4974291;28;20200;-82
2023/09/30 01:42:21;;;;;;;14.47;7.37;;;;;;;-141.97;51.84;47361.47;4964885;29;20177;-85
2023/09/30 01:44:46;;;;;;;14.33;6.90;;;;;;;-141.97;51.78;47326.88;4955842;29;20688;-85
2023/09/30 01:47:12;;;;;;;13.40;6.43;;;;;;;-141.97;51.72;47582.50;4955947;29;20616;-85
2023/09/30 01:49:37;;;;;;;20.43;7.23;;;;;;;-141.97;52.04;47446.03;4955648;29;20177;-85
2023/09/30 01:52:03;;;;;;;12.97;6.93;;;;;;;-141.97;52.44;47636.31;4955981;29;20169;-85
2023/09/30 01:54:29;;;;;;;11.53;7.13;;;;;;;-141.97;52.66;47620.94;4956461;29;20180;-84
2023/09/30 01:56:54;;;;;;;13.37;7.30;;;;;;;-141.97;52.84;47496.00;4980298;28;20177;-85
2023/09/30 01:59:19;;;;;;;12.77;7.40;;;;;;;-141.97;52.73;47434.50;4965450;29;20248;-85
2023/09/30 02:01:48;;;;;;;13.57;7.30;;;;;;;-141.97;52.67;47613.25;4969080;29;20615;-84
2023/09/30 02:04:15;;;;;;;13.67;7.53;;;;;;;-141.97;53.05;47590.19;4958171;29;20230;-83
2023/09/30 02:06:43;;;;;;;16.17;8.20;;;;;;;-141.97;53.04;47542.16;4956075;29;20223;-84
2023/09/30 02:09:09;;;;;;;13.30;7.20;;;;;;;-141.97;52.80;47459.50;4955998;29;20219;-85
2023/09/30 02:11:35;;;;;;;14.73;7.70;;;;;;;-141.97;52.96;47538.28;4956087;29;20173;-86
2023/09/30 02:14:02;;;;;;;12.07;7.23;;;;;;;-141.97;53.65;47428.75;4955484;29;20165;-85
2023/09/30 02:16:27;;;;;;;11.87;7.60;;;;;;;-141.97;53.28;47467.19;4955363;28;20662;-87
2023/09/30 02:18:53;;;;;;;11.23;6.97;;;;;;;-141.97;53.21;47507.53;4985063;28;20298;-85
2023/09/30 02:21:19;;;;;;;14.30;7.80;;;;;;;-141.97;53.59;47348.03;4994047;28;20640;-86
2023/09/30 02:23:47;;;;;;;12.63;7.70;;;;;;;-141.97;53.70;47484.47;4993841;28;20214;-85
2023/09/30 02:26:14;;;;;;;12.77;7.17;;;;;;;-141.97;53.80;47321.13;4993443;28;20180;-86
2023/09/30 02:28:39;;;;;;;14.07;8.20;;;;;;;-141.97;54.34;47584.44;4993916;28;20241;-84
2023/09/30 02:31:07;;;;;;;15.60;7.67;;;;;;;-141.97;54.61;47594.03;4995826;28;20644;-85
2023/09/30 02:33:35;;;;;;;14.13;8.20;;;;;;;-141.97;54.42;47465.25;4999896;28;20171;-86
2023/09/30 02:36:00;;;;;;;15.77;7.73;;;;;;;-141.97;55.09;47453.72;5004873;28;20249;-86
2023/09/30 02:38:26;;;;;;;12.90;7.40;;;;;;;-141.97;55.43;47459.50;4993831;28;20172;-86
2023/09/30 02:40:51;;;;;;;11.77;8.13;;;;;;;-141.97;55.69;47403.75;4993359;28;20259;-88
2023/09/30 02:43:17;;;;;;;14.50;7.80;;;;;;;-141.97;55.38;47488.31;4993074;28;20170;-82
2023/09/30 02:45:43;;;;;;;15.90;8.07;;;;;;;-141.97;55.84;47569.06;4993317;28;20686;-82
2023/09/30 02:48:09;;;;;;;14.17;8.10;;;;;;;-141.97;55.39;47511.38;4991794;28;20167;-83
2023/09/30 02:50:34;;;;;;;14.97;8.30;;;;;;;-141.97;55.60;47620.94;4992974;28;20202;-82
2023/09/30 02:53:00;;;;;;;15.53;7.80;;;;;;;-141.97;55.65;47597.88;4993015;28;20164;-83
2023/09/30 02:55:25;;;;;;;15.07;7.77;;;;;;;-141.97;55.90;47486.41;4993099;28;20199;-84
2023/09/30 02:57:52;;;;;;;12.50;8.03;;;;;;;-141.97;56.17;47515.22;4991873;28;20182;-81
2023/09/30 03:00:24;;;;;;;15.87;8.50;;;;;;;-141.97;56.39;47494.09;4992613;28;20640;-83
2023/09/30 03:02:53;;;;;;;12.10;7.90;;;;;;;-141.97;56.60;47447.97;4992718;28;20228;-82
2023/09/30 03:05:19;;;;;;;13.97;8.37;;;;;;;-141.97;56.85;47517.16;4992571;28;20163;-82
2023/09/30 03:07:45;;;;;;;20.00;8.10;;;;;;;-141.97;57.07;47496.00;4992584;28;20203;-82
2023/09/30 03:10:12;;;;;;;12.93;8.10;;;;;;;-141.97;57.52;47492.16;4992730;28;20163;-84
2023/09/30 03:12:38;;;;;;;13.47;7.73;;;;;;;-141.97;57.80;47684.38;4992574;28;20198;-86
2023/09/30 03:15:04;;;;;;;13.90;8.13;;;;;;;-141.97;57.67;47396.06;4993095;28;20227;-83
2023/09/30 03:17:31;;;;;;;17.87;8.30;;;;;;;-141.97;57.31;47692.06;4993902;28;20197;-82
2023/09/30 03:19:57;;;;;;;17.23;7.63;;;;;;;-141.97;58.10;47434.50;5006292;28;20171;-83
2023/09/30 03:22:23;;;;;;;14.40;8.07;;;;;;;-141.97;57.63;47478.72;5003871;28;20168;-82
2023/09/30 03:24:48;;;;;;;14.30;8.00;;;;;;;-141.97;57.46;47428.75;5004931;28;20330;-81
2023/09/30 03:27:15;;;;;;;13.33;8.43;;;;;;;-141.97;58.12;47465.25;5007223;28;20183;-84
2023/09/30 03:29:40;;;;;;;12.50;8.07;;;;;;;-141.97;58.41;47672.84;4972204;28;20192;-84
2023/09/30 03:32:06;;;;;;;13.50;7.87;;;;;;;-141.97;58.49;47469.09;4974183;28;20629;-84
2023/09/30 03:34:36;;;;;;;11.00;7.73;;;;;;;-141.97;58.15;47363.41;4980689;28;20644;-83
2023/09/30 03:37:01;;;;;;;13.73;8.17;;;;;;;-141.97;58.02;47517.16;4989496;28;20176;-83
2023/09/30 03:39:27;;;;;;;11.80;8.00;;;;;;;-141.97;58.41;47419.13;4981805;28;20232;-83
2023/09/30 03:41:58;;;;;;;15.03;8.23;;;;;;;-141.97;58.01;47388.38;4977020;28;20278;-83
2023/09/30 03:44:23;;;;;;;14.87;8.17;;;;;;;-141.97;57.40;47396.06;4972826;28;20164;-83
2023/09/30 03:46:52;;;;;;;22.10;8.53;;;;;;;-141.97;57.58;47330.72;4971576;28;20183;-84
2023/09/30 03:49:19;;;;;;;13.30;8.07;;;;;;;-141.97;57.60;47467.19;4971404;28;20176;-84
2023/09/30 03:51:45;;;;;;;13.00;7.60;;;;;;;-141.97;57.58;47398.00;4971392;28;20239;-83
2023/09/30 03:54:11;;;;;;;14.17;7.90;;;;;;;-141.97;57.41;47411.44;4971141;28;20180;-83
2023/09/30 03:56:38;;;;;;;18.40;7.93;;;;;;;-141.97;58.19;47436.44;4971557;28;20200;-83
2023/09/30 03:59:04;;;;;;;16.30;7.97;;;;;;;-141.97;58.53;47361.47;4971718;28;20176;-83
2023/09/30 04:01:30;;;;;;;15.70;8.30;;;;;;;-141.97;58.34;47401.84;4971298;28;20530;-83
2023/09/30 04:03:56;;;;;;;15.27;8.57;;;;;;;-141.97;58.78;47457.56;4940188;29;20172;-82
2023/09/30 04:06:22;;;;;;;16.97;8.30;;;;;;;-141.97;58.87;47501.78;4941603;29;20258;-84
2023/09/30 04:08:47;;;;;;;19.33;8.77;;;;;;;-141.97;58.62;47528.69;4937600;29;20205;-83
2023/09/30 04:11:17;;;;;;;20.00;8.60;;;;;;;-141.97;58.01;47447.97;4936553;29;20182;-83
2023/09/30 04:13:44;;;;;;;14.97;8.83;;;;;;;-141.97;57.87;47626.72;4952024;28;20173;-84
2023/09/30 04:16:10;;;;;;;18.20;8.80;;;;;;;-141.97;57.86;47463.34;4934313;29;20267;-84
2023/09/30 04:18:36;;;;;;;27.47;9.83;;;;;;;-141.97;57.50;47665.16;4948866;28;20197;-84
2023/09/30 04:21:02;;;;;;;26.10;9.53;;;;;;;-141.97;57.20;47542.16;4933958;29;20189;-84
2023/09/30 04:23:27;;;;;;;19.40;9.67;;;;;;;-141.97;57.05;47349.94;4949478;28;20204;-85
2023/09/30 04:25:53;;;;;;;29.50;16.40;;;;;;;-141.97;57.19;47380.69;4934092;29;20173;-84
2023/09/30 04:28:21;;;;;;;24.70;14.53;;;;;;;-141.97;57.57;47632.47;4960298;28;20231;-84
2023/09/30 04:30:48;;;;;;;30.67;16.37;;;;;;;-141.97;58.10;47532.53;4958891;28;20216;-85
2023/09/30 04:33:15;;;;;;;18.87;10.90;;;;;;;-141.97;58.54;47553.69;4968812;28;20709;-84
2023/09/30 04:35:40;;;;;;;21.30;11.63;;;;;;;-141.97;58.96;47519.06;4953271;28;20669;-83
2023/09/30 04:38:06;;;;;;;22.13;11.07;;;;;;;-141.97;59.02;47655.53;4951854;28;20187;-83
2023/09/30 04:40:33;;;;;;;21.17;10.33;;;;;;;-141.97;59.88;47638.25;4955944;28;20169;-85
2023/09/30 04:42:59;;;;;;;21.43;11.33;;;;;;;-141.97;59.36;47407.59;4956778;28;20161;-84
2023/09/30 04:45:26;;;;;;;17.20;11.03;;;;;;;-141.97;59.13;47430.66;4956496;28;20173;-84
2023/09/30 04:47:52;;;;;;;20.63;10.83;;;;;;;-141.97;59.96;47357.63;4955597;28;20561;-82
2023/09/30 04:50:17;;;;;;;19.50;11.17;;;;;;;-141.97;59.73;47357.63;4956621;28;20169;-82
2023/09/30 04:52:44;;;;;;;21.73;11.73;;;;;;;-141.97;59.72;47384.53;4957042;28;20175;-85
2023/09/30 04:55:12;;;;;;;20.03;11.03;;;;;;;-141.97;59.51;47503.69;4971463;28;20200;-83
2023/09/30 04:57:38;;;;;;;19.23;10.17;;;;;;;-141.97;59.37;47444.13;4955516;29;20678;-85
2023/09/30 05:00:10;;;;;;;19.67;10.40;;;;;;;-141.97;59.22;47534.44;4971430;28;20265;-83
2023/09/30 05:02:36;;;;;;;20.37;10.87;;;;;;;-141.97;58.35;47530.59;4955880;29;20176;-83
2023/09/30 05:05:02;;;;;;;21.00;10.70;;;;;;;-141.97;57.86;47313.44;4957070;28;20276;-83
2023/09/30 05:07:28;;;;;;;30.07;11.30;;;;;;;-141.97;57.48;47392.22;4971979;28;20232;-84
2023/09/30 05:09:54;;;;;;;18.87;10.53;;;;;;;-141.97;57.70;47365.31;4965341;28;20180;-83
2023/09/30 05:12:20;;;;;;;21.10;10.20;;;;;;;-141.97;57.50;47467.19;4978507;28;20688;-82
2023/09/30 05:14:45;;;;;;;17.50;10.30;;;;;;;-141.97;57.11;47432.59;4958649;28;20180;-83
2023/09/30 05:17:20;;;;;;;19.53;11.10;;;;;;;-141.97;56.96;47472.94;4973377;28;20207;-83
2023/09/30 05:19:46;;;;;;;21.27;9.97;;;;;;;-141.97;56.79;47342.25;4957072;29;20172;-84
2023/09/30 05:22:12;;;;;;;15.70;9.43;;;;;;;-141.97;56.80;47672.84;4957253;28;20180;-82
2023/09/30 05:24:37;;;;;;;17.23;9.90;;;;;;;-141.97;57.16;47378.78;4964265;28;20721;-84
2023/09/30 05:27:02;;;;;;;18.37;9.37;;;;;;;-141.97;57.60;47396.06;4975649;28;20199;-83
2023/09/30 05:29:29;;;;;;;17.90;9.57;;;;;;;-141.97;57.65;47605.56;4975296;28;20233;-83
2023/09/30 05:31:54;;;;;;;22.57;9.57;;;;;;;-141.97;57.64;47388.38;4976066;28;20187;-83
2023/09/30 05:34:20;;;;;;;18.80;9.80;;;;;;;-141.97;57.27;47392.22;4973768;28;20183;-83
2023/09/30 05:36:45;;;;;;;19.63;9.33;;;;;;;-141.97;56.57;47678.63;4974009;28;20227;-83
2023/09/30 05:39:11;;;;;;;86.63;47.23;;;;;;;-141.97;56.54;47492.16;4973978;28;20266;-82
2023/09/30 05:41:37;;;;;;;195.10;108.40;;;;;;;-141.97;56.19;47630.56;4975685;28;20170;-81
2023/09/30 05:44:04;;;;;;;218.73;111.97;;;;;;;-141.97;56.44;47663.22;4975484;28;20280;-82
2023/09/30 05:46:30;;;;;;;149.77;87.47;;;;;;;-141.97;57.22;47472.94;4975294;28;20657;-83
2023/09/30 05:48:56;;;;;;;49.00;31.40;;;;;;;-141.97;57.14;47630.56;4973763;28;20179;-83
2023/09/30 05:51:21;;;;;;;28.60;16.47;;;;;;;-141.97;56.56;47699.75;4973319;28;20206;-84
2023/09/30 05:53:48;;;;;;;43.13;27.13;;;;;;;-141.97;56.26;47471.03;4974897;28;20268;-82
2023/09/30 05:56:15;;;;;;;48.47;27.83;;;;;;;-141.97;55.84;47438.34;4973670;28;20215;-83
2023/09/30 05:58:43;;;;;;;34.20;18.13;;;;;;;-141.97;55.26;47484.47;4973887;28;20258;-83
2023/09/30 06:01:12;;;;;;;25.83;13.70;;;;;;;-141.97;54.72;47461.41;4973817;28;20246;-83
2023/09/30 06:03:41;;;;;;;27.87;11.67;;;;;;;-141.97;54.40;47494.09;4976641;28;20502;-84
2023/09/30 06:06:16;;;;;;;23.00;9.90;;;;;;;-141.97;53.92;47505.63;4978141;28;20176;-83
2023/09/30 06:08:47;;;;;;;22.23;10.63;;;;;;;-141.97;53.75;47415.28;4977099;28;20171;-82
2023/09/30 06:11:24;;;;;;;24.17;9.93;;;;;;;-141.97;53.81;47503.69;4976010;28;20172;-83
2023/09/30 06:13:55;;;;;;;20.90;9.63;;;;;;;-141.97;53.38;47517.16;4978583;28;20165;-82
2023/09/30 06:16:21;;;;;;;23.00;10.63;;;;;;;-141.97;53.31;47480.63;4984378;28;20208;-83
2023/09/30 06:18:46;;;;;;;21.83;10.30;;;;;;;-141.97;53.04;47503.69;4978403;28;20164;-83
2023/09/30 06:21:16;;;;;;;21.47;9.93;;;;;;;-141.97;52.60;47503.69;4979174;28;20180;-83
2023/09/30 06:23:43;;;;;;;20.20;10.20;;;;;;;-141.97;51.37;47676.69;4979580;28;20164;-82
2023/09/30 06:26:09;;;;;;;19.40;10.10;;;;;;;-141.97;50.99;47480.63;4990218;28;20259;-81
2023/09/30 06:28:40;;;;;;;20.97;10.77;;;;;;;-141.97;49.88;47559.44;4984162;28;20226;-84
2023/09/30 06:31:07;;;;;;;20.50;11.23;;;;;;;-141.97;48.37;47503.69;4975973;28;20612;-83
2023/09/30 06:33:38;;;;;;;20.37;11.57;;;;;;;-141.97;47.63;47421.06;4975682;28;20235;-84
2023/09/30 06:36:09;;;;;;;23.27;12.27;;;;;;;-141.97;47.11;47642.09;4975343;28;20239;-83
2023/09/30 06:38:34;;;;;;;21.37;12.47;;;;;;;-141.97;46.67;47494.09;4973765;28;20183;-83
2023/09/30 06:41:01;;;;;;;25.03;11.50;;;;;;;-141.97;45.66;47284.59;4973646;28;20653;-83
2023/09/30 06:43:27;;;;;;;24.60;11.87;;;;;;;-141.97;45.37;47620.94;4974640;28;20255;-83
2023/09/30 06:45:54;;;;;;;24.23;11.00;;;;;;;-141.97;44.87;47672.84;4974436;28;20203;-82
2023/09/30 06:48:20;;;;;;;19.77;10.20;;;;;;;-141.97;44.76;47659.38;4974869;28;20173;-83
2023/09/30 06:50:50;;;;;;;26.90;10.83;;;;;;;-141.97;44.65;47476.78;4975466;28;20641;-82
2023/09/30 06:53:16;;;;;;;19.23;10.60;;;;;;;-141.97;44.71;47380.69;4975317;28;20198;-82
2023/09/30 06:55:46;;;;;;;19.70;10.23;;;;;;;-141.97;44.11;47480.63;4974348;28;20210;-83
2023/09/30 06:58:11;;;;;;;20.20;10.57;;;;;;;-141.97;44.10;47463.34;4974068;28;20164;-83
2023/09/30 07:00:44;;;;;;;15.17;9.33;;;;;;;-141.97;43.54;47403.75;4974148;28;20172;-83
2023/09/30 07:03:09;;;;;;;18.30;10.10;;;;;;;-141.97;43.75;47499.84;4972563;28;20522;-81
2023/09/30 07:05:36;;;;;;;16.97;9.50;;;;;;;-141.97;43.44;47459.50;4989595;28;20244;-82
2023/09/30 07:08:02;;;;;;;19.73;10.40;;;;;;;-141.97;42.89;47286.53;4985948;28;20176;-83
2023/09/30 07:10:29;;;;;;;19.50;10.67;;;;;;;-141.97;42.57;47515.22;4974396;28;20219;-83
2023/09/30 07:12:55;;;;;;;20.33;10.77;;;;;;;-141.97;42.35;47499.84;4974034;28;20164;-83
2023/09/30 07:15:20;;;;;;;22.90;11.03;;;;;;;-141.97;42.29;47484.47;4973661;28;20551;-83
2023/09/30 07:17:47;;;;;;;23.30;11.30;;;;;;;-141.97;41.70;47463.34;4973618;28;20640;-82
2023/09/30 07:20:13;;;;;;;19.53;11.07;;;;;;;-141.97;41.28;47328.81;4973641;28;20177;-83
2023/09/30 07:22:38;;;;;;;25.23;11.80;;;;;;;-141.97;41.28;47472.94;4973666;28;20247;-83
2023/09/30 07:25:04;;;;;;;21.30;11.57;;;;;;;-141.97;40.83;47424.91;4974128;28;20207;-83
2023/09/30 07:27:30;;;;;;;17.33;10.37;;;;;;;-141.97;40.80;47430.66;4988916;28;20187;-84
2023/09/30 07:29:55;;;;;;;16.63;10.77;;;;;;;-141.97;40.34;47263.47;4975344;28;20176;-83
2023/09/30 07:32:23;;;;;;;23.73;10.87;;;;;;;-141.97;40.75;47438.34;4984277;28;20188;-84
2023/09/30 07:34:49;;;;;;;17.10;9.73;;;;;;;-141.97;39.62;47330.72;4988782;28;20168;-83
2023/09/30 07:37:14;;;;;;;14.20;9.03;;;;;;;-141.97;39.16;47490.25;4983066;28;20174;-83
2023/09/30 07:39:40;;;;;;;17.27;9.43;;;;;;;-141.97;39.36;47461.41;4977580;28;20168;-82
2023/09/30 07:42:08;;;;;;;15.13;8.80;;;;;;;-141.97;38.67;47463.34;4989210;28;20168;-83
2023/09/30 07:44:33;;;;;;;21.83;8.40;;;;;;;-141.97;38.53;47319.19;4974712;28;20184;-85
2023/09/30 07:46:59;;;;;;;16.67;8.80;;;;;;;-141.97;38.91;47476.78;4982716;28;20179;-83
2023/09/30 07:49:24;;;;;;;16.10;8.90;;;;;;;-141.97;38.86;47680.53;4978567;28;20172;-84
2023/09/30 07:51:49;;;;;;;14.47;8.10;;;;;;;-141.97;38.00;47403.75;4973860;28;20184;-83
2023/09/30 07:54:17;;;;;;;18.23;8.77;;;;;;;-141.97;37.80;47444.13;4973493;28;20583;-82
2023/09/30 07:56:42;;;;;;;17.40;8.10;;;;;;;-141.97;37.64;47413.38;4974163;28;20310;-82
2023/09/30 07:59:07;;;;;;;12.83;8.40;;;;;;;-141.97;37.84;47411.44;4972861;28;20625;-83
2023/09/30 08:01:33;;;;;;;15.87;8.53;;;;;;;-141.97;37.59;47421.06;4973385;28;20176;-83
2023/09/30 08:03:58;;;;;;;12.80;7.73;;;;;;;-141.97;37.17;47261.53;4972884;28;20191;-84
2023/09/30 08:06:24;;;;;;;13.70;8.03;;;;;;;-141.97;37.05;47311.50;4972497;28;20180;-83
2023/09/30 08:08:49;;;;;;;17.10;7.73;;;;;;;-141.97;37.31;47332.66;4972988;28;20640;-82
2023/09/30 08:11:17;;;;;;;17.33;8.00;;;;;;;-141.97;36.87;47286.53;4972729;28;20184;-83
2023/09/30 08:13:42;;;;;;;15.50;7.73;;;;;;;-141.97;36.33;47626.72;4972230;28;20176;-83
2023/09/30 08:16:08;;;;;;;17.83;8.17;;;;;;;-141.97;36.48;47546.00;4972152;28;20580;-82
2023/09/30 08:18:33;;;;;;;11.97;8.00;;;;;;;-141.97;36.16;47261.53;4972336;28;20191;-83
2023/09/30 08:20:59;;;;;;;12.57;8.03;;;;;;;-141.97;36.40;47219.25;4972164;28;20202;-83
2023/09/30 08:23:24;;;;;;;15.77;7.87;;;;;;;-141.97;36.18;47292.28;4973030;28;20180;-83
2023/09/30 08:25:49;;;;;;;19.03;7.83;;;;;;;-141.97;36.18;47432.59;4974950;28;20172;-83
2023/09/30 08:28:15;;;;;;;15.17;7.67;;;;;;;-141.97;35.25;47349.94;4973570;28;20306;-83
2023/09/30 08:30:40;;;;;;;19.37;8.00;;;;;;;-141.97;34.88;47438.34;4975304;28;20168;-84
2023/09/30 08:33:05;;;;;;;11.05;7.68;;;;;;;-141.97;34.04;47415.28;4973366;28;20637;-84
2023/09/30 08:35:35;;;;;;;12.32;7.65;;;;;;;-141.97;33.96;47373.00;4973016;28;20283;-82
2023/09/30 08:38:02;;;;;;;15.32;7.88;;;;;;;-141.97;33.43;47603.66;4987422;28;20648;-82
2023/09/30 08:40:28;;;;;;;13.43;7.50;;;;;;;-141.97;33.55;47315.34;4972521;28;20183;-82
2023/09/30 08:42:53;;;;;;;17.23;7.88;;;;;;;-141.97;33.42;47303.81;4971010;28;20260;-82
2023/09/30 08:45:19;;;;;;;12.88;7.60;;;;;;;-141.97;33.03;47392.22;4987133;28;20575;-82
2023/09/30 08:47:50;;;;;;;15.43;7.47;;;;;;;-141.97;32.19;47584.44;4971762;28;20700;-83
2023/09/30 08:50:16;;;;;;;14.07;7.47;;;;;;;-141.97;32.22;47449.88;4980740;28;20162;-83
2023/09/30 08:52:43;;;;;;;14.20;7.40;;;;;;;-141.97;31.66;47257.69;4976552;28;20531;-83
2023/09/30 08:55:09;;;;;;;12.75;6.72;;;;;;;-141.97;31.53;47284.59;4973185;28;20573;-83
2023/09/30 08:57:39;;;;;;;15.40;7.10;;;;;;;-141.97;31.99;47384.53;4972707;28;20180;-83
2023/09/30 09:00:06;;;;;;;13.25;7.10;;;;;;;-141.97;31.34;47396.06;4987192;28;20182;-82
2023/09/30 09:02:34;;;;;;;15.43;7.00;;;;;;;-141.97;31.00;47398.00;4972092;28;20532;-82
2023/09/30 09:05:00;;;;;;;14.82;6.82;;;;;;;-141.97;30.72;47369.16;4971825;28;20172;-84
2023/09/30 09:07:25;;;;;;;19.13;7.35;;;;;;;-141.97;30.72;47269.22;4972141;28;20341;-83
2023/09/30 09:10:07;;;;;;;13.52;7.20;;;;;;;-141.97;31.84;47390.31;4971603;28;20167;-82
2023/09/30 09:12:34;;;;;;;12.50;7.15;;;;;;;-141.97;31.16;47361.47;4971680;28;20203;-83
2023/09/30 09:15:00;;;;;;;14.35;7.05;;;;;;;-141.97;31.55;47580.59;4972163;28;20226;-83
2023/09/30 09:17:41;;;;;;;16.35;7.28;;;;;;;-141.97;31.40;47373.00;4972509;28;20635;-84
2023/09/30 09:20:09;;;;;;;12.93;7.30;;;;;;;-141.97;31.35;47173.13;4972478;28;20169;-83
2023/09/30 09:22:39;;;;;;;10.82;6.70;;;;;;;-141.97;31.95;47384.53;4975896;28;20172;-84
2023/09/30 09:25:05;;;;;;;12.98;7.15;;;;;;;-141.97;31.88;47442.19;4972403;28;20699;-83
2023/09/30 09:27:33;;;;;;;15.27;7.07;;;;;;;-141.97;31.74;47303.81;4975170;28;20219;-85
2023/09/30 09:30:19;;;;;;;15.43;7.40;;;;;;;-141.97;31.46;47403.75;4975069;28;20170;-82
2023/09/30 09:32:54;;;;;;;15.68;7.30;;;;;;;-141.97;30.79;47323.03;4975160;28;20183;-83
2023/09/30 09:35:22;;;;;;;10.90;7.18;;;;;;;-141.97;30.15;47365.31;4975013;28;20206;-84
2023/09/30 09:38:04;;;;;;;11.77;7.40;;;;;;;-141.97;29.70;47357.63;4974950;28;20174;-84
2023/09/30 09:40:35;;;;;;;10.23;6.53;;;;;;;-141.97;30.28;47321.13;4974944;28;20164;-83
2023/09/30 09:43:04;;;;;;;15.00;7.03;;;;;;;-141.97;30.23;47609.41;4974618;28;20188;-82
2023/09/30 09:45:33;;;;;;;15.18;7.10;;;;;;;-141.97;29.50;47286.53;4975097;28;20168;-83
2023/09/30 09:47:59;;;;;;;17.63;7.50;;;;;;;-141.97;30.01;47340.34;4990143;28;20180;-83
2023/09/30 09:50:25;;;;;;;17.25;7.45;;;;;;;-141.97;29.67;47490.25;4975330;28;20177;-84
2023/09/30 09:52:54;;;;;;;15.70;8.05;;;;;;;-141.97;29.85;47374.94;4975119;28;20173;-84
2023/09/30 09:55:22;;;;;;;20.10;7.25;;;;;;;-141.97;28.92;47319.19;4974545;28;20263;-83
2023/09/30 09:57:48;;;;;;;12.32;6.80;;;;;;;-141.97;28.90;47290.38;4974992;28;20180;-84
2023/09/30 10:00:25;;;;;;;8.38;6.18;;;;;;;-141.97;28.88;47271.16;4989981;28;20561;-83
2023/09/30 10:02:51;;;;;;;10.93;6.45;;;;;;;-141.97;28.60;47307.66;4974566;28;20204;-83
2023/09/30 10:05:19;;;;;;;12.05;6.90;;;;;;;-141.97;28.51;47365.31;4974377;28;20641;-84
2023/09/30 10:07:57;;;;;;;16.95;7.20;;;;;;;-141.97;27.99;47309.59;4974745;28;20233;-83
2023/09/30 10:10:24;;;;;;;10.00;6.65;;;;;;;-141.97;27.80;47340.34;4975049;28;20171;-83
2023/09/30 10:12:50;;;;;;;16.02;7.78;;;;;;;-141.97;27.54;47171.22;4973897;28;20182;-83
2023/09/30 10:15:25;;;;;;;12.02;6.90;;;;;;;-141.97;27.26;47319.19;4974176;28;20215;-84
2023/09/30 10:18:06;;;;;;;10.38;6.43;;;;;;;-141.97;27.59;47338.41;4973944;28;20190;-83
2023/09/30 10:20:36;;;;;;;10.20;6.72;;;;;;;-141.97;27.64;47253.84;4974256;28;20202;-82
2023/09/30 10:23:16;;;;;;;10.02;7.15;;;;;;;-141.97;27.39;47275.00;4974841;28;20164;-83
2023/09/30 10:25:47;;;;;;;15.52;7.07;;;;;;;-141.97;27.22;47184.66;4986511;28;20180;-82
2023/09/30 10:28:49;;;;;;;11.82;7.15;;;;;;;-141.97;27.12;47342.25;4980660;28;20307;-84
2023/09/30 10:31:19;;;;;;;10.38;6.93;;;;;;;-141.97;27.19;47282.69;4973615;28;20221;-84
2023/09/30 10:33:59;;;;;;;11.80;7.03;;;;;;;-141.97;27.06;47307.66;4982085;28;20164;-84
2023/09/30 10:36:41;;;;;;;9.18;6.75;;;;;;;-141.97;26.64;47225.03;4978526;28;20206;-84
2023/09/30 10:39:13;;;;;;;12.07;7.07;;;;;;;-141.97;26.58;47299.97;4976203;28;20206;-83
2023/09/30 10:41:38;;;;;;;9.00;6.53;;;;;;;-141.97;26.12;47276.91;4976873;28;20444;-83
2023/09/30 10:44:22;;;;;;;12.98;6.65;;;;;;;-141.97;26.52;47296.13;4974776;28;20679;-83
2023/09/30 10:47:20;;;;;;;12.68;6.47;;;;;;;-141.97;26.18;47307.66;4974402;28;20168;-84
2023/09/30 10:49:46;;;;;;;9.65;6.80;;;;;;;-141.97;26.61;47267.31;4973390;28;20192;-84
2023/09/30 10:52:21;;;;;;;12.30;6.90;;;;;;;-141.97;26.09;47323.03;4983152;28;20194;-83
2023/09/30 10:54:48;;;;;;;14.82;6.90;;;;;;;-141.97;26.13;47561.38;4976885;28;20702;-84
2023/09/30 10:57:27;;;;;;;11.38;6.70;;;;;;;-141.97;26.16;47246.16;4958090;28;20172;-82
2023/09/30 11:00:11;;;;;;;15.18;7.32;;;;;;;-141.97;25.88;47269.22;4974036;28;20196;-86
2023/09/30 11:02:51;;;;;;;8.57;7.20;;;;;;;-141.97;26.55;47278.84;4961004;28;20223;-86
2023/09/30 11:05:17;;;;;;;10.60;7.10;;;;;;;-141.97;26.81;47236.56;4986228;28;20183;-84
2023/09/30 11:07:47;;;;;;;10.43;6.80;;;;;;;-141.97;26.94;47244.25;4985620;28;20203;-84
2023/09/30 11:10:16;;;;;;;11.45;6.80;;;;;;;-141.97;26.70;47311.50;4980894;28;20182;-84